sensor_id;sensor_type;location;lat;lon;timestamp;pressure;altitude;pressure_sealevel;temperature;humidity
9421;BME280;4749;51.398;5.466;2023-02-13T00:00:52;103516.69;;;7.57;100.00
9421;BME280;4749;51.398;5.466;2023-02-13T00:03:19;103515.34;;;7.49;100.00
9421;BME280;4749;51.398;5.466;2023-02-13T00:05:46;103510.63;;;7.43;100.00
9421;BME280;4749;51.398;5.466;2023-02-13T00:08:13;103508.56;;;7.38;100.00
9421;BME280;4749;51.398;5.466;2023-02-13T00:10:40;103516.16;;;7.33;100.00
9421;BME280;4749;51.398;5.466;2023-02-13T00:13:08;103513.25;;;7.28;100.00
9421;BME280;4749;51.398;5.466;2023-02-13T00:15:35;103510.19;;;7.21;100.00
9421;BME280;4749;51.398;5.466;2023-02-13T00:18:03;103511.66;;;7.16;100.00
9421;BME280;4749;51.398;5.466;2023-02-13T00:20:30;103504.31;;;7.10;100.00
9421;BME280;4749;51.398;5.466;2023-02-13T00:22:58;103505.66;;;7.03;100.00
9421;BME280;4749;51.398;5.466;2023-02-13T00:25:26;103506.22;;;6.98;100.00
9421;BME280;4749;51.398;5.466;2023-02-13T00:27:53;103498.72;;;6.89;100.00
9421;BME280;4749;51.398;5.466;2023-02-13T00:30:21;103497.53;;;6.84;100.00
9421;BME280;4749;51.398;5.466;2023-02-13T00:32:48;103498.16;;;6.80;100.00
9421;BME280;4749;51.398;5.466;2023-02-13T00:35:15;103493.47;;;6.74;100.00
9421;BME280;4749;51.398;5.466;2023-02-13T00:37:43;103495.81;;;6.70;100.00
9421;BME280;4749;51.398;5.466;2023-02-13T00:40:11;103491.13;;;6.64;100.00
9421;BME280;4749;51.398;5.466;2023-02-13T00:42:38;103487.41;;;6.61;100.00
9421;BME280;4749;51.398;5.466;2023-02-13T00:45:06;103489.03;;;6.59;100.00
9421;BME280;4749;51.398;5.466;2023-02-13T00:47:33;103493.97;;;6.54;100.00
9421;BME280;4749;51.398;5.466;2023-02-13T00:50:00;103485.03;;;6.51;100.00
9421;BME280;4749;51.398;5.466;2023-02-13T00:52:27;103487.56;;;6.49;100.00
9421;BME280;4749;51.398;5.466;2023-02-13T00:54:55;103486.38;;;6.44;100.00
9421;BME280;4749;51.398;5.466;2023-02-13T00:57:22;103480.75;;;6.38;100.00
9421;BME280;4749;51.398;5.466;2023-02-13T00:59:49;103482.28;;;6.34;100.00
9421;BME280;4749;51.398;5.466;2023-02-13T01:02:17;103476.00;;;6.31;100.00
9421;BME280;4749;51.398;5.466;2023-02-13T01:04:45;103482.72;;;6.27;100.00
9421;BME280;4749;51.398;5.466;2023-02-13T01:07:12;103490.38;;;6.24;100.00
9421;BME280;4749;51.398;5.466;2023-02-13T01:09:42;103488.28;;;6.18;100.00
9421;BME280;4749;51.398;5.466;2023-02-13T01:12:10;103488.09;;;6.15;100.00
9421;BME280;4749;51.398;5.466;2023-02-13T01:14:37;103484.38;;;6.12;100.00
9421;BME280;4749;51.398;5.466;2023-02-13T01:17:04;103491.94;;;6.07;100.00
9421;BME280;4749;51.398;5.466;2023-02-13T01:19:31;103488.31;;;6.05;100.00
9421;BME280;4749;51.398;5.466;2023-02-13T01:21:58;103483.72;;;6.01;100.00
9421;BME280;4749;51.398;5.466;2023-02-13T01:24:26;103489.66;;;5.99;100.00
9421;BME280;4749;51.398;5.466;2023-02-13T01:26:55;103480.59;;;5.93;100.00
9421;BME280;4749;51.398;5.466;2023-02-13T01:29:23;103479.50;;;5.90;100.00
9421;BME280;4749;51.398;5.466;2023-02-13T01:31:50;103480.16;;;5.87;100.00
9421;BME280;4749;51.398;5.466;2023-02-13T01:34:17;103480.97;;;5.86;100.00
9421;BME280;4749;51.398;5.466;2023-02-13T01:36:44;103477.19;;;5.81;100.00
9421;BME280;4749;51.398;5.466;2023-02-13T01:39:12;103480.50;;;5.79;100.00
9421;BME280;4749;51.398;5.466;2023-02-13T01:41:39;103481.28;;;5.78;100.00
9421;BME280;4749;51.398;5.466;2023-02-13T01:44:48;103473.19;;;5.73;100.00
9421;BME280;4749;51.398;5.466;2023-02-13T01:48:00;103474.59;;;5.68;100.00
9421;BME280;4749;51.398;5.466;2023-02-13T01:50:41;103473.50;;;5.64;100.00
9421;BME280;4749;51.398;5.466;2023-02-13T01:53:34;103479.41;;;5.62;100.00
9421;BME280;4749;51.398;5.466;2023-02-13T01:58:39;103469.50;;;5.56;100.00
9421;BME280;4749;51.398;5.466;2023-02-13T02:01:09;103458.84;;;5.53;100.00
9421;BME280;4749;51.398;5.466;2023-02-13T02:03:51;103464.06;;;5.53;100.00
9421;BME280;4749;51.398;5.466;2023-02-13T02:06:29;103468.28;;;5.51;100.00
9421;BME280;4749;51.398;5.466;2023-02-13T02:09:07;103469.81;;;5.48;100.00
9421;BME280;4749;51.398;5.466;2023-02-13T02:14:33;103471.19;;;5.43;100.00
9421;BME280;4749;51.398;5.466;2023-02-13T02:17:01;103471.91;;;5.40;100.00
9421;BME280;4749;51.398;5.466;2023-02-13T02:22:43;103468.97;;;5.35;100.00
9421;BME280;4749;51.398;5.466;2023-02-13T02:33:49;103466.38;;;5.22;100.00
9421;BME280;4749;51.398;5.466;2023-02-13T02:51:05;103458.44;;;5.07;100.00
9421;BME280;4749;51.398;5.466;2023-02-13T02:56:39;103465.03;;;5.02;100.00
9421;BME280;4749;51.398;5.466;2023-02-13T02:59:11;103465.84;;;5.01;100.00
9421;BME280;4749;51.398;5.466;2023-02-13T03:02:00;103461.25;;;4.97;100.00
9421;BME280;4749;51.398;5.466;2023-02-13T03:04:53;103455.81;;;4.94;100.00
9421;BME280;4749;51.398;5.466;2023-02-13T03:07:40;103456.50;;;4.92;100.00
9421;BME280;4749;51.398;5.466;2023-02-13T03:10:16;103451.09;;;4.89;100.00
9421;BME280;4749;51.398;5.466;2023-02-13T03:13:28;103452.69;;;4.87;100.00
9421;BME280;4749;51.398;5.466;2023-02-13T03:15:58;103458.69;;;4.86;100.00
9421;BME280;4749;51.398;5.466;2023-02-13T03:18:50;103463.72;;;4.83;100.00
9421;BME280;4749;51.398;5.466;2023-02-13T03:22:22;103466.13;;;4.79;100.00
9421;BME280;4749;51.398;5.466;2023-02-13T03:25:07;103457.97;;;4.75;100.00
9421;BME280;4749;51.398;5.466;2023-02-13T03:27:57;103449.97;;;4.72;100.00
9421;BME280;4749;51.398;5.466;2023-02-13T03:31:22;103461.06;;;4.69;100.00
9421;BME280;4749;51.398;5.466;2023-02-13T03:34:06;103453.03;;;4.66;100.00
9421;BME280;4749;51.398;5.466;2023-02-13T03:37:05;103454.56;;;4.63;100.00
9421;BME280;4749;51.398;5.466;2023-02-13T03:40:33;103452.53;;;4.59;100.00
9421;BME280;4749;51.398;5.466;2023-02-13T03:43:11;103454.13;;;4.57;100.00
9421;BME280;4749;51.398;5.466;2023-02-13T03:45:44;103463.53;;;4.55;100.00
9421;BME280;4749;51.398;5.466;2023-02-13T03:48:30;103455.41;;;4.50;100.00
9421;BME280;4749;51.398;5.466;2023-02-13T03:53:59;103460.41;;;4.47;100.00
9421;BME280;4749;51.398;5.466;2023-02-13T03:56:28;103464.47;;;4.43;100.00
9421;BME280;4749;51.398;5.466;2023-02-13T03:59:25;103466.19;;;4.43;100.00
9421;BME280;4749;51.398;5.466;2023-02-13T04:02:16;103472.09;;;4.40;100.00
9421;BME280;4749;51.398;5.466;2023-02-13T04:04:58;103470.19;;;4.38;100.00
9421;BME280;4749;51.398;5.466;2023-02-13T04:07:29;103476.88;;;4.34;100.00
9421;BME280;4749;51.398;5.466;2023-02-13T04:10:13;103478.47;;;4.32;100.00
9421;BME280;4749;51.398;5.466;2023-02-13T04:13:08;103486.09;;;4.29;100.00
9421;BME280;4749;51.398;5.466;2023-02-13T04:15:44;103479.75;;;4.26;100.00
9421;BME280;4749;51.398;5.466;2023-02-13T04:18:21;103484.75;;;4.22;100.00
9421;BME280;4749;51.398;5.466;2023-02-13T04:20:49;103481.91;;;4.19;100.00
9421;BME280;4749;51.398;5.466;2023-02-13T04:23:17;103474.69;;;4.15;100.00
9421;BME280;4749;51.398;5.466;2023-02-13T04:25:49;103477.19;;;4.14;100.00
9421;BME280;4749;51.398;5.466;2023-02-13T04:28:17;103472.66;;;4.11;100.00
9421;BME280;4749;51.398;5.466;2023-02-13T04:30:44;103463.81;;;4.09;100.00
9421;BME280;4749;51.398;5.466;2023-02-13T04:33:12;103463.53;;;4.05;100.00
9421;BME280;4749;51.398;5.466;2023-02-13T04:35:39;103458.97;;;4.02;100.00
9421;BME280;4749;51.398;5.466;2023-02-13T04:38:06;103461.47;;;4.01;100.00
9421;BME280;4749;51.398;5.466;2023-02-13T04:40:34;103461.28;;;3.98;100.00
9421;BME280;4749;51.398;5.466;2023-02-13T04:43:01;103464.53;;;3.95;100.00
9421;BME280;4749;51.398;5.466;2023-02-13T04:45:28;103459.22;;;3.93;100.00
9421;BME280;4749;51.398;5.466;2023-02-13T04:47:56;103459.03;;;3.90;100.00
9421;BME280;4749;51.398;5.466;2023-02-13T04:50:24;103455.41;;;3.88;100.00
9421;BME280;4749;51.398;5.466;2023-02-13T04:52:56;103456.06;;;3.86;100.00
9421;BME280;4749;51.398;5.466;2023-02-13T04:55:26;103458.69;;;3.86;100.00
9421;BME280;4749;51.398;5.466;2023-02-13T04:57:55;103458.69;;;3.86;100.00
9421;BME280;4749;51.398;5.466;2023-02-13T05:00:26;103452.56;;;3.85;100.00
9421;BME280;4749;51.398;5.466;2023-02-13T05:02:57;103452.56;;;3.85;100.00
9421;BME280;4749;51.398;5.466;2023-02-13T05:05:26;103456.06;;;3.86;100.00
9421;BME280;4749;51.398;5.466;2023-02-13T05:07:53;103453.47;;;3.86;100.00
9421;BME280;4749;51.398;5.466;2023-02-13T05:10:20;103443.97;;;3.86;100.00
9421;BME280;4749;51.398;5.466;2023-02-13T05:12:47;103439.00;;;3.89;100.00
9421;BME280;4749;51.398;5.466;2023-02-13T05:15:15;103447.81;;;3.91;100.00
9421;BME280;4749;51.398;5.466;2023-02-13T05:17:44;103447.91;;;3.93;100.00
9421;BME280;4749;51.398;5.466;2023-02-13T05:20:12;103456.63;;;3.93;100.00
9421;BME280;4749;51.398;5.466;2023-02-13T05:22:52;103451.41;;;3.93;100.00
9421;BME280;4749;51.398;5.466;2023-02-13T05:25:40;103449.72;;;3.94;100.00
9421;BME280;4749;51.398;5.466;2023-02-13T05:28:08;103451.41;;;3.93;100.00
9421;BME280;4749;51.398;5.466;2023-02-13T05:30:56;103455.63;;;3.91;100.00
9421;BME280;4749;51.398;5.466;2023-02-13T05:33:24;103460.72;;;3.90;100.00
9421;BME280;4749;51.398;5.466;2023-02-13T05:35:51;103448.28;;;3.86;100.00
9421;BME280;4749;51.398;5.466;2023-02-13T05:38:18;103455.31;;;3.87;100.00
9421;BME280;4749;51.398;5.466;2023-02-13T05:40:45;103462.88;;;3.84;100.00
9421;BME280;4749;51.398;5.466;2023-02-13T05:43:13;103457.56;;;3.82;100.00
9421;BME280;4749;51.398;5.466;2023-02-13T05:45:40;103464.47;;;3.82;100.00
9421;BME280;4749;51.398;5.466;2023-02-13T05:48:07;103460.88;;;3.80;100.00
9421;BME280;4749;51.398;5.466;2023-02-13T05:50:34;103472.38;;;3.83;100.00
9421;BME280;4749;51.398;5.466;2023-02-13T05:53:01;103466.28;;;3.83;100.00
9421;BME280;4749;51.398;5.466;2023-02-13T05:55:28;103472.38;;;3.83;100.00
9421;BME280;4749;51.398;5.466;2023-02-13T05:57:59;103459.47;;;3.85;100.00
9421;BME280;4749;51.398;5.466;2023-02-13T06:00:26;103461.28;;;3.86;100.00
9421;BME280;4749;51.398;5.466;2023-02-13T06:02:53;103464.78;;;3.86;100.00
9421;BME280;4749;51.398;5.466;2023-02-13T06:05:20;103466.63;;;3.87;100.00
9421;BME280;4749;51.398;5.466;2023-02-13T06:07:47;103468.31;;;3.87;100.00
9421;BME280;4749;51.398;5.466;2023-02-13T06:10:15;103457.13;;;3.88;100.00
9421;BME280;4749;51.398;5.466;2023-02-13T06:12:43;103455.41;;;3.88;100.00
9421;BME280;4749;51.398;5.466;2023-02-13T06:15:10;103462.31;;;3.88;100.00
9421;BME280;4749;51.398;5.466;2023-02-13T06:17:37;103458.91;;;3.89;100.00
9421;BME280;4749;51.398;5.466;2023-02-13T06:20:06;103450.31;;;3.90;100.00
9421;BME280;4749;51.398;5.466;2023-02-13T06:22:33;103458.91;;;3.89;100.00
9421;BME280;4749;51.398;5.466;2023-02-13T06:25:00;103453.72;;;3.89;100.00
9421;BME280;4749;51.398;5.466;2023-02-13T06:27:27;103458.13;;;3.90;100.00
9421;BME280;4749;51.398;5.466;2023-02-13T06:29:55;103455.41;;;3.88;100.00
9421;BME280;4749;51.398;5.466;2023-02-13T06:32:22;103458.22;;;3.91;100.00
9421;BME280;4749;51.398;5.466;2023-02-13T06:34:49;103457.22;;;3.89;100.00
9421;BME280;4749;51.398;5.466;2023-02-13T06:37:16;103459.94;;;3.91;100.00
9421;BME280;4749;51.398;5.466;2023-02-13T06:39:43;103459.94;;;3.91;100.00
9421;BME280;4749;51.398;5.466;2023-02-13T06:42:11;103459.94;;;3.91;100.00
9421;BME280;4749;51.398;5.466;2023-02-13T06:44:38;103460.94;;;3.93;100.00
9421;BME280;4749;51.398;5.466;2023-02-13T06:47:05;103457.44;;;3.92;100.00
9421;BME280;4749;51.398;5.466;2023-02-13T06:49:32;103452.22;;;3.92;100.00
9421;BME280;4749;51.398;5.466;2023-02-13T06:51:59;103457.44;;;3.92;100.00
9421;BME280;4749;51.398;5.466;2023-02-13T06:54:26;103465.13;;;3.91;100.00
9421;BME280;4749;51.398;5.466;2023-02-13T06:57:11;103466.84;;;3.90;100.00
9421;BME280;4749;51.398;5.466;2023-02-13T06:59:39;103466.84;;;3.90;100.00
9421;BME280;4749;51.398;5.466;2023-02-13T07:02:10;103466.84;;;3.90;100.00
9421;BME280;4749;51.398;5.466;2023-02-13T07:04:37;103473.84;;;3.91;100.00
9421;BME280;4749;51.398;5.466;2023-02-13T07:07:05;103489.56;;;3.93;100.00
9421;BME280;4749;51.398;5.466;2023-02-13T07:09:32;103481.84;;;3.94;100.00
9421;BME280;4749;51.398;5.466;2023-02-13T07:12:04;103487.06;;;3.94;100.00
9421;BME280;4749;51.398;5.466;2023-02-13T07:14:31;103483.56;;;3.94;100.00
9421;BME280;4749;51.398;5.466;2023-02-13T07:16:58;103491.28;;;3.92;100.00
9421;BME280;4749;51.398;5.466;2023-02-13T07:19:25;103488.56;;;3.91;100.00
9421;BME280;4749;51.398;5.466;2023-02-13T07:21:52;103485.06;;;3.90;100.00
9421;BME280;4749;51.398;5.466;2023-02-13T07:24:20;103484.25;;;3.91;100.00
9421;BME280;4749;51.398;5.466;2023-02-13T07:26:47;103486.16;;;3.94;100.00
9421;BME280;4749;51.398;5.466;2023-02-13T07:29:14;103486.41;;;3.97;100.00
9421;BME280;4749;51.398;5.466;2023-02-13T07:31:41;103485.59;;;3.98;100.00
9421;BME280;4749;51.398;5.466;2023-02-13T07:34:08;103483.00;;;3.98;100.00
9421;BME280;4749;51.398;5.466;2023-02-13T07:36:35;103480.41;;;3.98;100.00
9421;BME280;4749;51.398;5.466;2023-02-13T07:39:03;103475.88;;;3.95;100.00
9421;BME280;4749;51.398;5.466;2023-02-13T07:41:30;103482.91;;;3.97;100.00
9421;BME280;4749;51.398;5.466;2023-02-13T07:43:57;103475.19;;;3.98;100.00
9421;BME280;4749;51.398;5.466;2023-02-13T07:46:24;103480.72;;;4.03;100.00
9421;BME280;4749;51.398;5.466;2023-02-13T07:48:52;103478.44;;;4.07;100.00
9421;BME280;4749;51.398;5.466;2023-02-13T07:51:19;103478.19;;;4.16;100.00
9421;BME280;4749;51.398;5.466;2023-02-13T07:53:46;103483.84;;;4.22;100.00
9421;BME280;4749;51.398;5.466;2023-02-13T07:56:13;103472.81;;;4.26;100.00
9421;BME280;4749;51.398;5.466;2023-02-13T07:58:41;103483.59;;;4.31;100.00
9421;BME280;4749;51.398;5.466;2023-02-13T08:01:13;103488.28;;;4.36;100.00
9421;BME280;4749;51.398;5.466;2023-02-13T08:03:40;103486.13;;;4.42;100.00
9421;BME280;4749;51.398;5.466;2023-02-13T08:06:08;103487.38;;;4.47;100.00
9421;BME280;4749;51.398;5.466;2023-02-13T08:08:36;103492.78;;;4.50;100.00
9421;BME280;4749;51.398;5.466;2023-02-13T08:11:30;103487.91;;;4.55;100.00
9421;BME280;4749;51.398;5.466;2023-02-13T08:14:17;103493.41;;;4.60;100.00
9421;BME280;4749;51.398;5.466;2023-02-13T08:16:44;103491.22;;;4.66;100.00
9421;BME280;4749;51.398;5.466;2023-02-13T08:19:11;103501.19;;;4.71;100.00
9421;BME280;4749;51.398;5.466;2023-02-13T08:21:38;103492.06;;;4.78;100.00
9421;BME280;4749;51.398;5.466;2023-02-13T08:24:07;103501.22;;;4.85;100.00
9421;BME280;4749;51.398;5.466;2023-02-13T08:26:34;103502.34;;;4.88;100.00
9421;BME280;4749;51.398;5.466;2023-02-13T08:29:02;103505.34;;;4.94;100.00
9421;BME280;4749;51.398;5.466;2023-02-13T08:31:30;103513.69;;;5.02;100.00
9421;BME280;4749;51.398;5.466;2023-02-13T08:33:57;103508.09;;;5.09;100.00
9421;BME280;4749;51.398;5.466;2023-02-13T08:36:25;103512.91;;;5.16;100.00
9421;BME280;4749;51.398;5.466;2023-02-13T08:38:52;103509.03;;;5.23;100.00
9421;BME280;4749;51.398;5.466;2023-02-13T08:41:20;103517.56;;;5.33;100.00
9421;BME280;4749;51.398;5.466;2023-02-13T08:43:49;103516.25;;;5.40;100.00
9421;BME280;4749;51.398;5.466;2023-02-13T08:46:17;103519.16;;;5.45;100.00
9421;BME280;4749;51.398;5.466;2023-02-13T08:48:44;103514.25;;;5.49;100.00
9421;BME280;4749;51.398;5.466;2023-02-13T08:51:13;103528.81;;;5.59;100.00
9421;BME280;4749;51.398;5.466;2023-02-13T08:53:40;103528.31;;;5.64;100.00
9421;BME280;4749;51.398;5.466;2023-02-13T08:56:09;103530.31;;;5.69;100.00
9421;BME280;4749;51.398;5.466;2023-02-13T08:58:38;103524.38;;;5.71;100.00
9421;BME280;4749;51.398;5.466;2023-02-13T09:01:08;103516.84;;;5.76;100.00
9421;BME280;4749;51.398;5.466;2023-02-13T09:03:36;103527.00;;;5.84;100.00
9421;BME280;4749;51.398;5.466;2023-02-13T09:06:03;103526.38;;;5.88;100.00
9421;BME280;4749;51.398;5.466;2023-02-13T09:08:31;103527.78;;;5.97;100.00
9421;BME280;4749;51.398;5.466;2023-02-13T09:11:01;103525.41;;;6.00;100.00
9421;BME280;4749;51.398;5.466;2023-02-13T09:13:30;103523.97;;;6.05;100.00
9421;BME280;4749;51.398;5.466;2023-02-13T09:16:01;103521.75;;;6.11;100.00
9421;BME280;4749;51.398;5.466;2023-02-13T09:18:31;103525.66;;;6.17;100.00
9421;BME280;4749;51.398;5.466;2023-02-13T09:21:05;103525.44;;;6.28;100.00
9421;BME280;4749;51.398;5.466;2023-02-13T09:23:35;103517.97;;;6.34;100.00
9421;BME280;4749;51.398;5.466;2023-02-13T09:26:06;103523.78;;;6.43;100.00
9421;BME280;4749;51.398;5.466;2023-02-13T09:28:35;103520.75;;;6.50;100.00
9421;BME280;4749;51.398;5.466;2023-02-13T09:31:18;103531.69;;;6.58;100.00
9421;BME280;4749;51.398;5.466;2023-02-13T09:33:47;103528.63;;;6.65;100.00
9421;BME280;4749;51.398;5.466;2023-02-13T09:36:22;103521.22;;;6.72;100.00
9421;BME280;4749;51.398;5.466;2023-02-13T09:38:55;103519.81;;;6.77;100.00
9421;BME280;4749;51.398;5.466;2023-02-13T09:41:33;103521.00;;;6.83;100.00
9421;BME280;4749;51.398;5.466;2023-02-13T09:44:37;103518.13;;;6.93;100.00
9421;BME280;4749;51.398;5.466;2023-02-13T09:47:30;103513.34;;;7.00;100.00
9421;BME280;4749;51.398;5.466;2023-02-13T09:52:46;103519.50;;;7.16;100.00
9421;BME280;4749;51.398;5.466;2023-02-13T09:55:22;103512.88;;;7.22;100.00
9421;BME280;4749;51.398;5.466;2023-02-13T09:58:08;103513.47;;;7.31;100.00
9421;BME280;4749;51.398;5.466;2023-02-13T10:00:41;103517.38;;;7.40;100.00
9421;BME280;4749;51.398;5.466;2023-02-13T10:03:31;103512.59;;;7.47;100.00
9421;BME280;4749;51.398;5.466;2023-02-13T10:06:35;103520.91;;;7.55;100.00
9421;BME280;4749;51.398;5.466;2023-02-13T10:12:35;103526.13;;;7.70;100.00
9421;BME280;4749;51.398;5.466;2023-02-13T10:15:37;103535.31;;;7.78;100.00
9421;BME280;4749;51.398;5.466;2023-02-13T10:18:44;103527.06;;;7.86;100.00
9421;BME280;4749;51.398;5.466;2023-02-13T10:21:16;103531.75;;;7.92;100.00
9421;BME280;4749;51.398;5.466;2023-02-13T10:24:08;103528.69;;;7.99;100.00
9421;BME280;4749;51.398;5.466;2023-02-13T10:26:39;103528.19;;;8.06;100.00
9421;BME280;4749;51.398;5.466;2023-02-13T10:29:40;103526.81;;;8.13;100.00
9421;BME280;4749;51.398;5.466;2023-02-13T10:37:51;103516.72;;;8.35;100.00
9421;BME280;4749;51.398;5.466;2023-02-13T10:40:20;103515.34;;;8.42;100.00
9421;BME280;4749;51.398;5.466;2023-02-13T10:43:10;103518.44;;;8.51;100.00
9421;BME280;4749;51.398;5.466;2023-02-13T10:45:54;103506.56;;;8.58;100.00
9421;BME280;4749;51.398;5.466;2023-02-13T10:52:00;103511.69;;;8.72;100.00
9421;BME280;4749;51.398;5.466;2023-02-13T10:54:58;103501.69;;;8.82;100.00
9421;BME280;4749;51.398;5.466;2023-02-13T10:58:03;103507.34;;;8.89;100.00
9421;BME280;4749;51.398;5.466;2023-02-13T11:00:40;103504.13;;;8.95;100.00
9421;BME280;4749;51.398;5.466;2023-02-13T11:03:19;103499.28;;;9.02;100.00
9421;BME280;4749;51.398;5.466;2023-02-13T11:05:48;103502.31;;;9.10;100.00
9421;BME280;4749;51.398;5.466;2023-02-13T11:08:23;103500.13;;;9.19;100.00
9421;BME280;4749;51.398;5.466;2023-02-13T11:10:51;103496.19;;;9.27;100.00
9421;BME280;4749;51.398;5.466;2023-02-13T11:13:22;103494.75;;;9.34;100.00
9421;BME280;4749;51.398;5.466;2023-02-13T11:16:08;103488.00;;;9.39;100.00
9421;BME280;4749;51.398;5.466;2023-02-13T11:18:42;103484.78;;;9.45;100.00
9421;BME280;4749;51.398;5.466;2023-02-13T11:21:22;103475.56;;;9.53;100.00
9421;BME280;4749;51.398;5.466;2023-02-13T11:23:57;103470.59;;;9.59;100.00
9421;BME280;4749;51.398;5.466;2023-02-13T11:26:35;103474.41;;;9.66;100.00
9421;BME280;4749;51.398;5.466;2023-02-13T11:29:21;103463.28;;;9.71;100.00
9421;BME280;4749;51.398;5.466;2023-02-13T11:34:40;103465.69;;;9.84;100.00
9421;BME280;4749;51.398;5.466;2023-02-13T11:37:29;103463.25;;;9.89;100.00
9421;BME280;4749;51.398;5.466;2023-02-13T11:39:58;103457.34;;;9.93;100.00
9421;BME280;4749;51.398;5.466;2023-02-13T11:42:33;103454.97;;;9.99;100.00
9421;BME280;4749;51.398;5.466;2023-02-13T11:45:23;103443.91;;;10.06;100.00
9421;BME280;4749;51.398;5.466;2023-02-13T11:47:53;103447.66;;;10.11;100.00
9421;BME280;4749;51.398;5.466;2023-02-13T11:50:33;103445.41;;;10.19;100.00
9421;BME280;4749;51.398;5.466;2023-02-13T11:53:21;103450.03;;;10.25;100.00
9421;BME280;4749;51.398;5.466;2023-02-13T11:56:13;103443.34;;;10.31;100.00
9421;BME280;4749;51.398;5.466;2023-02-13T11:58:41;103440.88;;;10.34;100.00
9421;BME280;4749;51.398;5.466;2023-02-13T12:01:26;103435.91;;;10.42;100.00
9421;BME280;4749;51.398;5.466;2023-02-13T12:04:26;103442.50;;;10.52;100.00
9421;BME280;4749;51.398;5.466;2023-02-13T12:09:31;103434.19;;;10.62;100.00
9421;BME280;4749;51.398;5.466;2023-02-13T12:12:00;103422.06;;;10.65;100.00
9421;BME280;4749;51.398;5.466;2023-02-13T12:14:39;103426.75;;;10.73;100.00
9421;BME280;4749;51.398;5.466;2023-02-13T12:17:17;103422.59;;;10.78;100.00
9421;BME280;4749;51.398;5.466;2023-02-13T12:19:59;103431.50;;;10.81;100.00
9421;BME280;4749;51.398;5.466;2023-02-13T12:23:16;103423.72;;;10.84;100.00
9421;BME280;4749;51.398;5.466;2023-02-13T12:26:22;103425.69;;;10.88;100.00
9421;BME280;4749;51.398;5.466;2023-02-13T12:40:37;103409.94;;;11.11;100.00
9421;BME280;4749;51.398;5.466;2023-02-13T12:43:42;103410.19;;;11.17;100.00
9421;BME280;4749;51.398;5.466;2023-02-13T12:46:46;103403.38;;;11.22;100.00
9421;BME280;4749;51.398;5.466;2023-02-13T12:49:48;103393.16;;;11.30;100.00
9421;BME280;4749;51.398;5.466;2023-02-13T13:08:26;103383.75;;;11.59;100.00
9421;BME280;4749;51.398;5.466;2023-02-13T13:16:45;103373.66;;;11.69;100.00
9421;BME280;4749;51.398;5.466;2023-02-13T13:22:45;103373.22;;;11.81;100.00
9421;BME280;4749;51.398;5.466;2023-02-13T13:25:31;103376.06;;;11.86;100.00
9421;BME280;4749;51.398;5.466;2023-02-13T13:28:20;103366.50;;;11.89;100.00
9421;BME280;4749;51.398;5.466;2023-02-13T13:30:48;103362.13;;;11.90;100.00
9421;BME280;4749;51.398;5.466;2023-02-13T13:33:23;103366.63;;;11.92;100.00
9421;BME280;4749;51.398;5.466;2023-02-13T13:38:56;103355.47;;;11.99;100.00
9421;BME280;4749;51.398;5.466;2023-02-13T13:50:39;103344.53;;;12.13;100.00
9421;BME280;4749;51.398;5.466;2023-02-13T13:58:30;103329.03;;;12.22;100.00
9421;BME280;4749;51.398;5.466;2023-02-13T14:07:23;103334.56;;;12.29;100.00
9421;BME280;4749;51.398;5.466;2023-02-13T14:09:50;103339.00;;;12.30;100.00
9421;BME280;4749;51.398;5.466;2023-02-13T14:12:48;103343.47;;;12.33;100.00
9421;BME280;4749;51.398;5.466;2023-02-13T14:31:59;103323.28;;;12.33;100.00
9421;BME280;4749;51.398;5.466;2023-02-13T14:34:31;103318.84;;;12.32;100.00
9421;BME280;4749;51.398;5.466;2023-02-13T14:37:17;103325.97;;;12.35;100.00
9421;BME280;4749;51.398;5.466;2023-02-13T14:42:54;103317.22;;;12.36;100.00
9421;BME280;4749;51.398;5.466;2023-02-13T14:45:45;103324.28;;;12.37;100.00
9421;BME280;4749;51.398;5.466;2023-02-13T14:48:14;103323.41;;;12.36;100.00
9421;BME280;4749;51.398;5.466;2023-02-13T14:50:48;103328.72;;;12.38;100.00
9421;BME280;4749;51.398;5.466;2023-02-13T14:53:27;103320.81;;;12.38;100.00
9421;BME280;4749;51.398;5.466;2023-02-13T14:56:05;103323.41;;;12.36;100.00
9421;BME280;4749;51.398;5.466;2023-02-13T14:58:36;103312.72;;;12.33;100.00
9421;BME280;4749;51.398;5.466;2023-02-13T15:01:30;103313.56;;;12.32;100.00
9421;BME280;4749;51.398;5.466;2023-02-13T15:04:28;103316.19;;;12.32;100.00
9421;BME280;4749;51.398;5.466;2023-02-13T15:07:00;103314.41;;;12.31;100.00
9421;BME280;4749;51.398;5.466;2023-02-13T15:09:39;103309.84;;;12.27;100.00
9421;BME280;4749;51.398;5.466;2023-02-13T15:12:42;103315.97;;;12.26;100.00
9421;BME280;4749;51.398;5.466;2023-02-13T15:15:27;103307.06;;;12.23;100.00
9421;BME280;4749;51.398;5.466;2023-02-13T15:18:03;103307.88;;;12.20;100.00
9421;BME280;4749;51.398;5.466;2023-02-13T15:20:36;103298.91;;;12.15;100.00
9421;BME280;4749;51.398;5.466;2023-02-13T15:23:06;103302.34;;;12.13;100.00
9421;BME280;4749;51.398;5.466;2023-02-13T15:25:38;103291.66;;;12.09;100.00
9421;BME280;4749;51.398;5.466;2023-02-13T15:28:14;103292.44;;;12.07;100.00
9421;BME280;4749;51.398;5.466;2023-02-13T15:31:17;103292.34;;;12.04;100.00
9421;BME280;4749;51.398;5.466;2023-02-13T15:33:50;103289.53;;;11.99;100.00
9421;BME280;4749;51.398;5.466;2023-02-13T15:36:21;103293.03;;;11.98;100.00
9421;BME280;4749;51.398;5.466;2023-02-13T15:38:58;103290.28;;;11.95;100.00
9421;BME280;4749;51.398;5.466;2023-02-13T15:41:32;103291.84;;;11.90;100.00
9421;BME280;4749;51.398;5.466;2023-02-13T15:44:00;103284.69;;;11.86;100.00
9421;BME280;4749;51.398;5.466;2023-02-13T15:46:34;103283.66;;;11.82;100.00
9421;BME280;4749;51.398;5.466;2023-02-13T15:49:17;103282.59;;;11.77;100.00
9421;BME280;4749;51.398;5.466;2023-02-13T15:51:46;103285.88;;;11.72;100.00
9421;BME280;4749;51.398;5.466;2023-02-13T15:54:25;103284.75;;;11.65;100.00
9421;BME280;4749;51.398;5.466;2023-02-13T15:56:57;103279.25;;;11.59;100.00
9421;BME280;4749;51.398;5.466;2023-02-13T15:59:33;103277.34;;;11.55;100.00
9421;BME280;4749;51.398;5.466;2023-02-13T16:02:03;103278.97;;;11.51;100.00
9421;BME280;4749;51.398;5.466;2023-02-13T16:04:32;103283.19;;;11.46;100.00
9421;BME280;4749;51.398;5.466;2023-02-13T16:07:00;103275.97;;;11.42;100.00